Time;durP1;ratioP1;P1;durP2;ratioP2;P2;SDS_P1;SDS_P2;PMS_P1;PMS_P2;Temp;Humidity;BMP_temperature;BMP_pressure;BME280_temperature;BME280_humidity;BME280_pressure;Samples;Min_cycle;Max_cycle;Signal;HPM_P1;HPM_P2
2021/03/08 00:01:30;;;;;;;;;;;;;;;18.48;58.82;101205.09;5013384;28;1516;-57
2021/03/08 00:03:55;;;;;;;;;;;;;;;18.51;58.58;101209.34;5014761;28;1448;-57
2021/03/08 00:06:21;;;;;;;;;;;;;;;18.48;58.72;101204.22;5013601;28;1951;-57
2021/03/08 00:08:46;;;;;;;;;;;;;;;18.49;59.18;101197.91;5013483;28;1358;-57
2021/03/08 00:11:11;;;;;;;;;;;;;;;18.48;58.84;101201.53;5013574;28;1416;-57
2021/03/08 00:13:37;;;;;;;;;;;;;;;18.48;58.14;101197.06;5013572;28;1591;-57
2021/03/08 00:16:02;;;;;;;;;;;;;;;18.47;58.48;101194.50;5013762;28;1382;-57
2021/03/08 00:18:27;;;;;;;;;;;;;;;18.42;58.51;101191.31;5013928;28;1454;-57
2021/03/08 00:20:53;;;;;;;;;;;;;;;18.40;59.07;101185.22;5013822;28;1413;-57
2021/03/08 00:23:18;;;;;;;;;;;;;;;18.37;58.17;101188.16;5012792;28;1583;-57
2021/03/08 00:25:44;;;;;;;;;;;;;;;18.40;57.96;101177.19;5013541;28;1965;-57
2021/03/08 00:28:09;;;;;;;;;;;;;;;18.32;58.04;101179.63;5013988;28;1488;-57
2021/03/08 00:30:34;;;;;;;;;;;;;;;18.31;58.42;101183.28;5013421;28;1428;-57
2021/03/08 00:33:00;;;;;;;;;;;;;;;18.24;57.87;101174.88;5013523;28;1593;-57
2021/03/08 00:35:25;;;;;;;;;;;;;;;18.21;58.47;101170.63;5014257;28;1482;-57
2021/03/08 00:37:51;;;;;;;;;;;;;;;18.22;58.28;101161.63;5014678;28;1466;-57
2021/03/08 00:40:17;;;;;;;;;;;;;;;18.22;57.42;101177.69;5016907;28;1514;-57
2021/03/08 00:42:43;;;;;;;;;;;;;;;18.16;57.95;101162.09;5017203;28;1483;-57
2021/03/08 00:45:13;;;;;;;;;;;;;;;18.16;57.29;101162.09;5017286;28;1906;-56
2021/03/08 00:47:38;;;;;;;;;;;;;;;18.14;57.11;101158.69;5016975;28;1544;-57
2021/03/08 00:50:10;;;;;;;;;;;;;;;18.12;57.76;101162.44;5017126;28;1365;-57
2021/03/08 00:52:35;;;;;;;;;;;;;;;18.11;57.28;101158.09;5017191;28;1444;-57
2021/03/08 00:55:01;;;;;;;;;;;;;;;18.09;57.62;101145.66;5017102;28;1444;-57
2021/03/08 00:57:26;;;;;;;;;;;;;;;18.09;56.62;101151.00;5016394;28;1385;-58
2021/03/08 00:59:52;;;;;;;;;;;;;;;18.04;57.20;101149.66;5017103;28;1492;-57
2021/03/08 01:02:17;;;;;;;;;;;;;;;18.02;57.12;101147.09;5015995;28;1568;-57
2021/03/08 01:04:42;;;;;;;;;;;;;;;17.98;57.17;101150.16;4998986;28;1898;-58
2021/03/08 01:07:08;;;;;;;;;;;;;;;17.95;57.24;101145.06;5017608;28;1222;-57
2021/03/08 01:09:33;;;;;;;;;;;;;;;17.98;57.30;101140.28;5016435;28;1612;-57
2021/03/08 01:11:59;;;;;;;;;;;;;;;17.96;57.33;101131.53;5016388;28;1397;-58
2021/03/08 01:14:25;;;;;;;;;;;;;;;17.95;56.34;101126.31;5016439;28;1496;-57
2021/03/08 01:16:50;;;;;;;;;;;;;;;17.97;56.23;101121.69;5016656;28;1476;-57
2021/03/08 01:19:15;;;;;;;;;;;;;;;17.96;56.25;101134.22;5015943;28;1508;-57
2021/03/08 01:21:41;;;;;;;;;;;;;;;17.92;57.03;101134.56;5016099;28;1354;-57
2021/03/08 01:24:08;;;;;;;;;;;;;;;17.88;56.77;101126.78;5016501;28;1539;-58
2021/03/08 01:26:33;;;;;;;;;;;;;;;17.93;56.68;101121.09;5009632;28;1906;-57
2021/03/08 01:28:59;;;;;;;;;;;;;;;17.85;56.41;101110.97;5016656;28;1441;-56
2021/03/08 01:31:24;;;;;;;;;;;;;;;17.88;55.70;101117.91;5015945;28;1473;-56
2021/03/08 01:33:51;;;;;;;;;;;;;;;17.87;56.65;101095.66;5016204;28;1429;-57
2021/03/08 01:36:17;;;;;;;;;;;;;;;17.88;55.47;101105.38;5016233;28;1401;-57
2021/03/08 01:38:43;;;;;;;;;;;;;;;17.84;56.42;101111.09;5015551;28;1598;-57
2021/03/08 01:41:08;;;;;;;;;;;;;;;17.82;55.48;101108.50;5016243;28;1522;-57
2021/03/08 01:43:33;;;;;;;;;;;;;;;17.88;56.51;101112.56;5016123;28;1437;-57
2021/03/08 01:45:59;;;;;;;;;;;;;;;17.83;56.38;101099.53;5015633;28;1894;-58
2021/03/08 01:48:24;;;;;;;;;;;;;;;17.83;55.44;101110.25;5016587;28;1420;-56
2021/03/08 01:50:50;;;;;;;;;;;;;;;17.80;55.77;101107.75;5015614;28;1448;-57
2021/03/08 01:53:16;;;;;;;;;;;;;;;17.78;55.60;101116.88;5015967;28;1500;-57
2021/03/08 01:55:42;;;;;;;;;;;;;;;17.83;55.38;101098.66;5015768;28;1417;-57
2021/03/08 01:58:08;;;;;;;;;;;;;;;17.77;56.02;101094.63;5016043;28;1563;-57
2021/03/08 02:00:34;;;;;;;;;;;;;;;17.84;54.88;101111.09;5016504;28;1463;-58
2021/03/08 02:03:00;;;;;;;;;;;;;;;17.79;54.90;101107.91;5015810;28;1456;-57
2021/03/08 02:05:29;;;;;;;;;;;;;;;17.75;54.97;101101.94;5015131;28;1965;-57
2021/03/08 02:07:55;;;;;;;;;;;;;;;17.73;55.55;101087.81;5015899;28;1397;-58
2021/03/08 02:10:21;;;;;;;;;;;;;;;17.73;54.94;101109.22;5016134;28;1534;-58
2021/03/08 02:12:46;;;;;;;;;;;;;;;17.73;54.93;101103.03;5015290;28;1366;-58
2021/03/08 02:15:14;;;;;;;;;;;;;;;17.74;55.19;101094.88;5015527;28;1433;-57
2021/03/08 02:17:44;;;;;;;;;;;;;;;17.71;55.03;101103.16;5014885;28;1433;-57
2021/03/08 02:20:12;;;;;;;;;;;;;;;17.66;55.23;101092.78;4997644;28;1436;-57
2021/03/08 02:22:56;;;;;;;;;;;;;;;17.66;54.74;101091.94;5015566;28;1385;-57
2021/03/08 02:25:40;;;;;;;;;;;;;;;17.67;55.29;101105.19;5014801;28;1993;-58
2021/03/08 02:28:17;;;;;;;;;;;;;;;17.64;54.85;101093.88;5015052;28;1378;-57
2021/03/08 02:30:44;;;;;;;;;;;;;;;17.62;54.47;101101.16;5014928;28;1464;-58
2021/03/08 02:33:11;;;;;;;;;;;;;;;17.62;54.76;101111.88;5013946;28;1540;-56
2021/03/08 02:35:39;;;;;;;;;;;;;;;17.70;54.87;101120.16;5015257;28;1491;-57
2021/03/08 02:38:08;;;;;;;;;;;;;;;17.68;55.54;101106.03;5015057;28;1361;-57
2021/03/08 02:40:40;;;;;;;;;;;;;;;17.64;54.99;101101.91;5014657;28;1505;-57
2021/03/08 02:43:14;;;;;;;;;;;;;;;17.66;55.07;101078.56;5014663;28;1474;-57
2021/03/08 02:45:41;;;;;;;;;;;;;;;17.61;54.96;101091.47;5014975;28;1942;-58
2021/03/08 02:48:07;;;;;;;;;;;;;;;17.59;55.59;101091.56;5014809;28;1405;-57
2021/03/08 02:50:34;;;;;;;;;;;;;;;17.56;55.49;101096.31;5015235;28;1516;-57
2021/03/08 02:53:03;;;;;;;;;;;;;;;17.57;54.51;101095.34;5014840;28;1456;-56
2021/03/08 02:55:35;;;;;;;;;;;;;;;17.58;55.50;101094.34;5014353;28;1397;-57
2021/03/08 02:58:01;;;;;;;;;;;;;;;17.64;54.05;101109.94;5014570;28;1464;-57
2021/03/08 03:03:22;;;;;;;;;;;;;;;17.60;54.68;101100.44;4965058;26;2789;-43
2021/03/08 03:05:48;;;;;;;;;;;;;;;17.59;54.09;101104.94;5028896;28;1983;-43
2021/03/08 03:08:16;;;;;;;;;;;;;;;17.56;54.97;101101.66;5015448;28;1703;-43
2021/03/08 03:10:41;;;;;;;;;;;;;;;17.60;53.89;101092.41;5040024;22;3762;-57
2021/03/08 03:13:07;;;;;;;;;;;;;;;17.59;54.84;101090.72;5012644;28;1099;-56
2021/03/08 03:15:39;;;;;;;;;;;;;;;17.57;54.45;101101.53;5001726;28;1401;-56
2021/03/08 03:18:06;;;;;;;;;;;;;;;17.55;54.75;101095.47;5008629;28;1408;-56
2021/03/08 03:20:33;;;;;;;;;;;;;;;17.58;54.42;101097.03;5001570;28;1405;-56
2021/03/08 03:22:59;;;;;;;;;;;;;;;17.54;54.36;101088.38;5004900;28;1362;-57
2021/03/08 03:25:25;;;;;;;;;;;;;;;17.56;53.88;101096.31;5004703;28;1985;-56
2021/03/08 03:27:51;;;;;;;;;;;;;;;17.54;53.88;101090.22;5001530;28;1593;-57
2021/03/08 03:30:20;;;;;;;;;;;;;;;17.46;53.99;101094.31;5006872;28;1466;-57
2021/03/08 03:32:46;;;;;;;;;;;;;;;17.46;54.80;101086.28;5003046;28;1409;-56
2021/03/08 03:35:12;;;;;;;;;;;;;;;17.47;53.76;101080.00;5005850;28;1407;-57
2021/03/08 03:37:39;;;;;;;;;;;;;;;17.48;54.50;101083.50;5001686;28;1377;-56
2021/03/08 03:40:06;;;;;;;;;;;;;;;17.46;53.01;101082.78;5008849;28;1385;-57
2021/03/08 03:42:31;;;;;;;;;;;;;;;17.43;53.17;101080.34;5002981;28;1409;-57
2021/03/08 03:44:57;;;;;;;;;;;;;;;17.40;52.83;101084.09;5003563;28;1906;-57
2021/03/08 03:47:23;;;;;;;;;;;;;;;17.38;53.84;101093.22;5003893;28;1413;-57
2021/03/08 03:49:48;;;;;;;;;;;;;;;17.22;54.74;101085.50;4999452;28;1389;-56
2021/03/08 03:52:14;;;;;;;;;;;;;;;17.15;55.28;101093.16;4993526;28;1496;-57
2021/03/08 03:54:39;;;;;;;;;;;;;;;17.06;55.43;101085.81;4994147;28;1456;-56
2021/03/08 03:57:06;;;;;;;;;;;;;;;17.03;55.88;101078.00;5005693;28;1475;-57
2021/03/08 03:59:38;;;;;;;;;;;;;;;17.00;57.07;101089.78;5002971;28;1416;-56
2021/03/08 04:02:06;;;;;;;;;;;;;;;16.98;57.48;101083.69;4999412;28;1447;-56
2021/03/08 04:04:40;;;;;;;;;;;;;;;16.98;57.09;101085.53;5007560;28;1424;-57
2021/03/08 04:07:06;;;;;;;;;;;;;;;16.97;57.59;101094.50;5005773;28;1890;-56
2021/03/08 04:09:33;;;;;;;;;;;;;;;16.93;57.09;101077.88;5004008;28;1495;-56
2021/03/08 04:11:59;;;;;;;;;;;;;;;16.92;58.16;101089.50;5003041;28;1459;-56
2021/03/08 04:14:25;;;;;;;;;;;;;;;16.96;57.32;101103.50;5009483;28;1428;-56
2021/03/08 04:16:52;;;;;;;;;;;;;;;16.90;57.37;101097.63;5013724;28;1380;-55
2021/03/08 04:19:20;;;;;;;;;;;;;;;16.93;56.18;101091.22;4985701;28;1390;-57
2021/03/08 04:21:46;;;;;;;;;;;;;;;16.83;58.17;101098.19;5006462;28;1377;-57
2021/03/08 04:24:13;;;;;;;;;;;;;;;16.86;56.79;101089.97;5006307;28;1535;-56
2021/03/08 04:26:39;;;;;;;;;;;;;;;16.90;58.43;101094.97;5006559;28;1973;-57
2021/03/08 04:29:05;;;;;;;;;;;;;;;16.90;58.14;101083.44;5003538;28;1665;-56
2021/03/08 04:31:32;;;;;;;;;;;;;;;16.90;58.10;101080.75;5006641;28;1433;-58
2021/03/08 04:33:58;;;;;;;;;;;;;;;16.90;58.31;101076.25;5010184;28;1255;-57
2021/03/08 04:36:24;;;;;;;;;;;;;;;16.90;58.21;101070.06;5000837;28;1532;-57
2021/03/08 04:38:49;;;;;;;;;;;;;;;16.92;58.49;101075.31;5007516;28;1485;-57
2021/03/08 04:41:15;;;;;;;;;;;;;;;16.88;58.73;101069.34;5007661;28;1318;-57
2021/03/08 04:43:42;;;;;;;;;;;;;;;16.90;57.72;101083.44;5005533;28;1254;-56
2021/03/08 04:46:07;;;;;;;;;;;;;;;16.89;58.61;101085.25;5007698;28;1941;-57
2021/03/08 04:48:34;;;;;;;;;;;;;;;16.86;58.39;101066.78;5009250;28;1540;-57
2021/03/08 04:51:03;;;;;;;;;;;;;;;16.84;58.70;101062.53;5010316;28;1377;-56
2021/03/08 04:53:28;;;;;;;;;;;;;;;16.85;59.35;101069.53;5005990;28;1309;-57
2021/03/08 04:55:54;;;;;;;;;;;;;;;16.89;58.57;101065.69;5006216;28;1404;-56
2021/03/08 04:58:19;;;;;;;;;;;;;;;16.88;60.59;101064.00;4980277;28;1405;-56
2021/03/08 05:00:45;;;;;;;;;;;;;;;16.88;61.53;101069.34;5005765;28;1260;-56
2021/03/08 05:03:12;;;;;;;;;;;;;;;16.89;61.34;101063.88;5000617;28;1484;-57
2021/03/08 05:05:37;;;;;;;;;;;;;;;16.98;61.12;101057.00;4996563;28;1907;-56
2021/03/08 05:08:07;;;;;;;;;;;;;;;17.07;60.29;101052.78;5006364;28;1358;-57
2021/03/08 05:10:34;;;;;;;;;;;;;;;17.27;60.46;101057.47;5008593;28;1373;-56
2021/03/08 05:12:59;;;;;;;;;;;;;;;17.46;59.71;101058.72;4997110;28;1489;-56
2021/03/08 05:15:25;;;;;;;;;;;;;;;17.54;60.37;101061.66;5000223;28;1400;-57
2021/03/08 05:17:52;;;;;;;;;;;;;;;17.62;59.71;101053.03;5007687;28;1206;-56
2021/03/08 05:20:17;;;;;;;;;;;;;;;17.83;60.10;101056.75;5001657;28;1378;-56
2021/03/08 05:22:43;;;;;;;;;;;;;;;18.17;60.09;101058.56;5002104;28;1206;-56
2021/03/08 05:25:10;;;;;;;;;;;;;;;18.71;58.09;101048.84;4987195;28;1926;-56
2021/03/08 05:27:37;;;;;;;;;;;;;;;18.99;56.98;101056.31;5006172;28;1266;-56
2021/03/08 05:30:05;;;;;;;;;;;;;;;19.00;57.25;101049.13;5004290;28;1432;-57
2021/03/08 05:32:33;;;;;;;;;;;;;;;18.96;56.96;101053.91;5013096;28;1353;-56
2021/03/08 05:34:59;;;;;;;;;;;;;;;18.90;57.50;101054.41;5003626;28;1393;-58
2021/03/08 05:37:25;;;;;;;;;;;;;;;19.07;57.36;101058.34;5002819;28;1551;-57
2021/03/08 05:39:51;;;;;;;;;;;;;;;19.20;56.49;101063.50;5008342;28;1483;-58
2021/03/08 05:42:17;;;;;;;;;;;;;;;19.20;57.13;101064.38;5001504;28;1416;-58
2021/03/08 05:44:50;;;;;;;;;;;;;;;19.33;56.52;101049.94;4987430;28;1507;-57
2021/03/08 05:47:38;;;;;;;;;;;;;;;19.36;56.45;101047.84;5001954;28;1519;-58
2021/03/08 05:50:22;;;;;;;;;;;;;;;19.47;56.27;101050.44;4977467;28;1474;-58
2021/03/08 05:53:08;;;;;;;;;;;;;;;19.59;56.47;101058.44;4992606;28;1562;-57
2021/03/08 05:55:45;;;;;;;;;;;;;;;19.63;55.94;101060.69;4986068;28;1953;-58
2021/03/08 05:58:19;;;;;;;;;;;;;;;19.67;56.21;101066.66;4987042;28;1149;-58
2021/03/08 06:00:51;;;;;;;;;;;;;;;19.75;55.91;101074.94;4997286;28;1411;-58
2021/03/08 06:03:23;;;;;;;;;;;;;;;19.66;56.28;101073.88;4989540;28;1463;-59
2021/03/08 06:06:00;;;;;;;;;;;;;;;19.72;55.90;101060.94;4996172;28;1960;-59
2021/03/08 06:08:37;;;;;;;;;;;;;;;19.67;56.63;101070.19;4994448;28;1439;-56
2021/03/08 06:11:07;;;;;;;;;;;;;;;19.60;56.83;101060.16;4996045;28;1458;-55
2021/03/08 06:13:46;;;;;;;;;;;;;;;19.54;56.80;101055.31;5000464;28;1530;-58
2021/03/08 06:16:24;;;;;;;;;;;;;;;19.46;57.17;101067.53;5000691;28;1384;-57
2021/03/08 06:18:50;;;;;;;;;;;;;;;19.47;57.53;101066.53;5002194;28;1357;-59
2021/03/08 06:21:16;;;;;;;;;;;;;;;19.40;57.51;101059.16;4998239;28;1403;-55
2021/03/08 06:23:42;;;;;;;;;;;;;;;19.34;57.59;101060.53;4996794;28;1511;-57
2021/03/08 06:26:08;;;;;;;;;;;;;;;19.38;57.92;101067.34;4999905;28;1915;-58
2021/03/08 06:28:34;;;;;;;;;;;;;;;19.35;57.59;101064.91;4996260;28;1451;-57
2021/03/08 06:30:59;;;;;;;;;;;;;;;19.43;58.06;101070.47;4994347;28;1510;-56
2021/03/08 06:33:25;;;;;;;;;;;;;;;19.37;58.26;101078.19;4998248;28;1498;-56
2021/03/08 06:35:52;;;;;;;;;;;;;;;19.35;58.77;101067.59;4992074;28;1470;-57
2021/03/08 06:38:18;;;;;;;;;;;;;;;19.28;58.61;101090.56;4998203;28;1524;-57
2021/03/08 06:40:45;;;;;;;;;;;;;;;19.38;58.75;101072.72;4995219;28;1447;-59
2021/03/08 06:43:10;;;;;;;;;;;;;;;19.36;58.64;101057.69;5003093;28;1466;-57
2021/03/08 06:45:35;;;;;;;;;;;;;;;19.14;59.47;101037.22;4978956;28;2121;-57
2021/03/08 06:48:01;;;;;;;;;;;;;;;19.32;59.23;101065.19;4996090;28;1517;-56
2021/03/08 06:50:26;;;;;;;;;;;;;;;19.24;59.37;101086.44;4993514;28;1480;-56
2021/03/08 06:52:51;;;;;;;;;;;;;;;19.09;59.48;101085.88;4985893;28;1490;-57
2021/03/08 06:55:20;;;;;;;;;;;;;;;19.04;59.55;101091.63;4989702;28;963;-57
2021/03/08 06:57:45;;;;;;;;;;;;;;;19.02;59.63;101082.88;4990958;28;1467;-57
2021/03/08 07:00:12;;;;;;;;;;;;;;;18.96;58.96;101072.66;4985625;28;1553;-57
2021/03/08 07:02:42;;;;;;;;;;;;;;;18.99;59.06;101064.34;4991699;28;1522;-57
2021/03/08 07:05:08;;;;;;;;;;;;;;;19.03;59.10;101076.50;5005531;28;1962;-56
2021/03/08 07:07:50;;;;;;;;;;;;;;;18.98;58.97;101075.19;4992383;28;1094;-56
2021/03/08 07:10:16;;;;;;;;;;;;;;;18.98;59.22;101081.44;4994994;28;1329;-56
2021/03/08 07:12:52;;;;;;;;;;;;;;;18.99;59.50;101088.47;4993382;28;1470;-57
2021/03/08 07:15:17;;;;;;;;;;;;;;;18.97;59.33;101087.75;4989044;28;1738;-56
2021/03/08 07:17:42;;;;;;;;;;;;;;;18.94;59.61;101093.38;4988318;28;1431;-57
2021/03/08 07:20:09;;;;;;;;;;;;;;;18.95;59.56;101092.38;4992438;28;1301;-55
2021/03/08 07:22:47;;;;;;;;;;;;;;;19.03;59.50;101107.84;4994254;28;983;-59
2021/03/08 07:25:19;;;;;;;;;;;;;;;19.06;59.28;101096.88;4985701;28;1922;-57
2021/03/08 07:27:46;;;;;;;;;;;;;;;19.14;59.52;101083.69;4986817;28;1755;-56
2021/03/08 07:30:12;;;;;;;;;;;;;;;19.16;59.37;101070.13;4988749;28;1683;-56
2021/03/08 07:32:50;;;;;;;;;;;;;;;19.20;59.27;101067.06;4993075;28;1419;-60
2021/03/08 07:35:16;;;;;;;;;;;;;;;19.25;59.07;101080.06;5001906;28;1526;-59
2021/03/08 07:37:46;;;;;;;;;;;;;;;19.28;59.35;101082.50;4992903;28;1573;-59
2021/03/08 07:40:20;;;;;;;;;;;;;;;19.30;59.34;101075.19;4984599;28;1052;-57
2021/03/08 07:42:46;;;;;;;;;;;;;;;19.30;59.10;101059.09;4993976;28;1445;-55
2021/03/08 07:45:12;;;;;;;;;;;;;;;19.33;58.95;101064.19;4981602;28;1914;-58
2021/03/08 07:47:37;;;;;;;;;;;;;;;19.28;59.11;101056.53;4987521;28;1540;-57
2021/03/08 07:50:22;;;;;;;;;;;;;;;19.24;59.37;101048.91;4993317;28;990;-59
2021/03/08 07:52:48;;;;;;;;;;;;;;;19.21;59.42;101038.41;4976957;28;1608;-58
2021/03/08 07:55:13;;;;;;;;;;;;;;;19.19;59.49;101043.06;4988635;28;995;-61
2021/03/08 07:57:39;;;;;;;;;;;;;;;19.15;59.52;101055.03;4983181;28;1691;-60
2021/03/08 08:00:05;;;;;;;;;;;;;;;19.14;59.47;101053.31;4994828;28;1431;-62
2021/03/08 08:02:30;;;;;;;;;;;;;;;19.11;59.65;101053.59;4970149;28;1585;-62
2021/03/08 08:04:56;;;;;;;;;;;;;;;19.07;59.74;101051.16;4988216;28;1898;-60
2021/03/08 08:07:22;;;;;;;;;;;;;;;19.15;59.79;101049.66;4990705;28;1443;-60
2021/03/08 08:09:47;;;;;;;;;;;;;;;19.10;59.65;101042.03;4978007;28;1543;-63
2021/03/08 08:12:17;;;;;;;;;;;;;;;19.07;59.85;101031.53;4988720;28;1620;-58
2021/03/08 08:14:44;;;;;;;;;;;;;;;19.02;60.10;101023.03;4992153;28;1475;-62
2021/03/08 08:17:13;;;;;;;;;;;;;;;19.06;59.74;101027.19;4992936;28;1620;-62
2021/03/08 08:19:40;;;;;;;;;;;;;;;19.11;59.92;101026.78;5006849;28;1153;-59
2021/03/08 08:22:13;;;;;;;;;;;;;;;19.14;59.73;101034.53;4990199;28;1379;-59
2021/03/08 08:24:40;;;;;;;;;;;;;;;19.12;59.73;101023.09;4981800;28;1493;-57
2021/03/08 08:27:06;;;;;;;;;;;;;;;19.08;59.87;101007.31;4982556;28;1914;-57
2021/03/08 08:29:33;;;;;;;;;;;;;;;19.08;59.96;101006.47;4987980;28;1435;-62
2021/03/08 08:32:01;;;;;;;;;;;;;;;19.10;60.01;101011.66;4983124;28;1562;-59
2021/03/08 08:34:30;;;;;;;;;;;;;;;19.07;60.05;101008.25;4986242;28;829;-59
2021/03/08 08:37:16;;;;;;;;;;;;;;;19.05;60.11;101002.19;4991108;28;1443;-60
2021/03/08 08:39:42;;;;;;;;;;;;;;;19.04;60.12;101002.34;4978501;28;1584;-59
2021/03/08 08:42:15;;;;;;;;;;;;;;;19.01;60.17;101005.25;4987120;28;1531;-59
2021/03/08 08:44:41;;;;;;;;;;;;;;;19.02;60.19;101009.63;4989912;28;1304;-59
2021/03/08 08:47:14;;;;;;;;;;;;;;;18.97;60.25;101006.50;4987915;28;1886;-59
2021/03/08 08:49:40;;;;;;;;;;;;;;;19.03;60.27;101017.53;4978416;28;811;-59
2021/03/08 08:52:06;;;;;;;;;;;;;;;19.07;59.80;101005.59;4973425;28;1531;-59
2021/03/08 08:54:31;;;;;;;;;;;;;;;19.11;59.96;101014.22;4999959;28;1431;-59
2021/03/08 08:57:12;;;;;;;;;;;;;;;19.07;60.01;100994.03;5001835;28;1570;-59
2021/03/08 08:59:38;;;;;;;;;;;;;;;19.06;60.18;101003.06;4997695;28;1485;-59
2021/03/08 09:02:33;;;;;;;;;;;;;;;19.05;60.02;101002.19;4992907;28;1521;-60
2021/03/08 09:04:57;;;;;;;;;;;;;;;19.06;59.67;100997.69;4998876;28;1902;-67
2021/03/08 09:07:23;;;;;;;;;;;;;;;19.08;60.06;101004.63;5003776;28;1430;-58
2021/03/08 09:09:49;;;;;;;;;;;;;;;19.04;60.43;100989.78;4999654;28;1454;-59
2021/03/08 09:12:28;;;;;;;;;;;;;;;19.14;60.04;100991.66;5003521;28;1489;-61
2021/03/08 09:14:57;;;;;;;;;;;;;;;19.24;59.93;100976.50;4992466;28;1324;-63
2021/03/08 09:17:33;;;;;;;;;;;;;;;19.24;59.82;100981.88;4996958;28;1395;-61
2021/03/08 09:19:58;;;;;;;;;;;;;;;19.27;59.90;100979.75;5009556;28;1356;-61
2021/03/08 09:22:26;;;;;;;;;;;;;;;19.31;59.68;100984.88;4998124;28;1431;-59
2021/03/08 09:24:54;;;;;;;;;;;;;;;19.18;60.05;100975.19;4999614;28;1503;-60
2021/03/08 09:27:23;;;;;;;;;;;;;;;19.12;60.17;100977.53;5003097;28;1910;-59
2021/03/08 09:29:49;;;;;;;;;;;;;;;19.08;60.26;100975.13;5000910;28;1588;-61
2021/03/08 09:32:15;;;;;;;;;;;;;;;19.05;60.51;100977.22;4994172;28;1356;-59
2021/03/08 09:34:41;;;;;;;;;;;;;;;18.77;60.20;100928.63;5003216;28;1487;-60
2021/03/08 09:37:07;;;;;;;;;;;;;;;19.05;60.41;100974.53;5004564;28;1446;-60
2021/03/08 09:39:33;;;;;;;;;;;;;;;19.19;60.13;100981.41;5004162;28;1526;-64
2021/03/08 09:42:01;;;;;;;;;;;;;;;19.15;60.42;100980.81;5004541;28;1423;-59
2021/03/08 09:44:38;;;;;;;;;;;;;;;19.14;60.31;100978.25;4996894;28;1425;-62
2021/03/08 09:47:03;;;;;;;;;;;;;;;19.13;60.61;100973.88;4992352;28;1946;-59
2021/03/08 09:49:48;;;;;;;;;;;;;;;19.10;61.39;100966.09;4988405;28;1157;-65
2021/03/08 09:52:28;;;;;;;;;;;;;;;19.04;61.23;100971.03;4998606;28;1640;-58
2021/03/08 09:54:54;;;;;;;;;;;;;;;19.00;61.35;100961.53;5002227;28;1746;-57
2021/03/08 09:57:34;;;;;;;;;;;;;;;19.01;61.16;100957.88;4998124;28;1546;-58
2021/03/08 09:59:59;;;;;;;;;;;;;;;18.99;61.30;100956.31;4988132;28;1499;-59
2021/03/08 10:02:25;;;;;;;;;;;;;;;19.02;61.15;100954.22;4988890;28;1616;-59
2021/03/08 10:04:56;;;;;;;;;;;;;;;19.01;61.00;100944.47;4999009;28;1102;-61
2021/03/08 10:07:22;;;;;;;;;;;;;;;19.11;60.79;100939.16;4996565;28;1890;-59
2021/03/08 10:09:48;;;;;;;;;;;;;;;19.16;60.52;100930.72;4998585;28;1429;-61
2021/03/08 10:12:13;;;;;;;;;;;;;;;19.18;60.47;100931.44;4994352;28;1518;-59
2021/03/08 10:14:39;;;;;;;;;;;;;;;19.23;60.44;100931.91;4994249;28;1371;-63
2021/03/08 10:17:08;;;;;;;;;;;;;;;19.30;60.30;100924.16;4997330;28;1535;-60
2021/03/08 10:19:34;;;;;;;;;;;;;;;19.34;60.47;100931.81;5000938;28;1472;-61
2021/03/08 10:22:00;;;;;;;;;;;;;;;19.31;60.66;100931.25;5001772;28;1506;-60
2021/03/08 10:24:39;;;;;;;;;;;;;;;19.22;60.80;100928.38;5001970;28;1522;-59
2021/03/08 10:27:10;;;;;;;;;;;;;;;19.21;61.06;100932.03;4998993;28;1988;-63
2021/03/08 10:29:37;;;;;;;;;;;;;;;19.18;61.14;100931.44;4997388;28;1445;-58
2021/03/08 10:32:03;;;;;;;;;;;;;;;19.18;61.08;100921.59;4994424;28;1415;-60
2021/03/08 10:34:29;;;;;;;;;;;;;;;19.13;61.37;100917.59;5000810;28;1433;-59
2021/03/08 10:36:54;;;;;;;;;;;;;;;19.22;61.11;100922.16;4999653;28;1542;-58
2021/03/08 10:39:20;;;;;;;;;;;;;;;19.17;61.24;100924.38;4993428;28;1422;-58
2021/03/08 10:41:46;;;;;;;;;;;;;;;19.05;61.60;100897.66;5001984;28;1510;-61
2021/03/08 10:44:18;;;;;;;;;;;;;;;19.04;61.60;100920.09;4992450;28;1466;-60
2021/03/08 10:46:43;;;;;;;;;;;;;;;19.02;61.42;100911.34;4983852;28;1952;-60
2021/03/08 10:49:09;;;;;;;;;;;;;;;19.00;61.30;100907.94;4986284;28;806;-58
2021/03/08 10:51:35;;;;;;;;;;;;;;;19.03;61.49;100907.66;4987935;28;1730;-59
2021/03/08 10:54:04;;;;;;;;;;;;;;;19.00;61.31;100896.34;4984227;28;1580;-59
2021/03/08 10:56:30;;;;;;;;;;;;;;;19.01;61.46;100898.06;4987475;28;1430;-60
2021/03/08 10:58:56;;;;;;;;;;;;;;;18.99;61.43;100887.47;4982583;28;1673;-60
2021/03/08 11:01:22;;;;;;;;;;;;;;;18.98;61.51;100891.16;4982073;28;1454;-61
2021/03/08 11:03:47;;;;;;;;;;;;;;;18.97;61.52;100876.03;4986026;28;887;-59
2021/03/08 11:06:13;;;;;;;;;;;;;;;18.97;61.37;100876.03;4990253;28;1958;-60
2021/03/08 11:08:39;;;;;;;;;;;;;;;18.95;61.29;100877.16;4983133;28;1506;-58
2021/03/08 11:11:18;;;;;;;;;;;;;;;18.97;61.43;100870.66;4986243;28;1560;-59
2021/03/08 11:13:44;;;;;;;;;;;;;;;18.95;61.47;100874.47;4981763;28;1545;-60
2021/03/08 11:16:10;;;;;;;;;;;;;;;18.94;61.47;100870.09;4965998;28;1611;-59
2021/03/08 11:18:35;;;;;;;;;;;;;;;18.97;61.41;100875.19;4984890;28;791;-61
2021/03/08 11:21:19;;;;;;;;;;;;;;;18.95;61.63;100853.88;4990826;28;1770;-60
2021/03/08 11:23:44;;;;;;;;;;;;;;;18.91;61.38;100852.44;4983187;28;1577;-59
2021/03/08 11:26:10;;;;;;;;;;;;;;;18.93;61.51;100858.53;4967667;28;1914;-60
2021/03/08 11:28:40;;;;;;;;;;;;;;;18.91;61.35;100844.41;4981943;28;1639;-59
2021/03/08 11:31:06;;;;;;;;;;;;;;;18.93;61.49;100853.16;4983618;28;1500;-60
2021/03/08 11:33:37;;;;;;;;;;;;;;;18.94;61.13;100849.50;4984225;28;805;-60
2021/03/08 11:36:03;;;;;;;;;;;;;;;18.93;60.96;100833.56;4990456;28;1774;-60
2021/03/08 11:38:28;;;;;;;;;;;;;;;18.90;61.21;100837.38;4981859;28;1537;-59
2021/03/08 11:40:54;;;;;;;;;;;;;;;18.93;61.27;100839.75;4982121;28;1612;-59
2021/03/08 11:43:21;;;;;;;;;;;;;;;18.96;61.11;100836.84;4983228;28;1510;-61
2021/03/08 11:45:46;;;;;;;;;;;;;;;18.93;60.83;100831.72;4982338;28;1886;-60
2021/03/08 11:48:12;;;;;;;;;;;;;;;18.88;60.93;100821.41;4982943;28;804;-59
2021/03/08 11:50:37;;;;;;;;;;;;;;;18.96;60.91;100831.47;4990313;28;1542;-60
2021/03/08 11:53:04;;;;;;;;;;;;;;;18.91;61.06;100819.44;4983360;28;1548;-59
2021/03/08 11:55:29;;;;;;;;;;;;;;;18.94;61.26;100811.13;4989757;28;1556;-60
2021/03/08 11:57:54;;;;;;;;;;;;;;;18.91;60.88;100814.09;4982288;28;913;-60
2021/03/08 12:00:22;;;;;;;;;;;;;;;18.97;61.01;100801.00;4981759;28;1660;-59
2021/03/08 12:02:48;;;;;;;;;;;;;;;18.93;60.97;100796.88;4990267;28;1600;-59
2021/03/08 12:05:13;;;;;;;;;;;;;;;18.96;61.05;100810.03;4974341;28;1898;-59
2021/03/08 12:07:39;;;;;;;;;;;;;;;18.99;60.86;100795.50;4965667;28;1176;-59
2021/03/08 12:10:05;;;;;;;;;;;;;;;18.97;60.50;100784.91;4981275;28;1706;-60
2021/03/08 12:12:31;;;;;;;;;;;;;;;18.96;60.88;100783.22;4981122;28;1467;-60
2021/03/08 12:14:56;;;;;;;;;;;;;;;18.97;60.82;100779.56;4983250;28;1628;-59
2021/03/08 12:17:22;;;;;;;;;;;;;;;18.97;60.59;100784.91;4983468;28;1510;-60
2021/03/08 12:19:47;;;;;;;;;;;;;;;18.98;61.03;100786.63;4989538;28;897;-59
2021/03/08 12:22:12;;;;;;;;;;;;;;;18.99;60.65;100780.28;4981610;28;1727;-59
2021/03/08 12:24:37;;;;;;;;;;;;;;;18.99;60.79;100784.78;4981766;28;1552;-60
2021/03/08 12:27:03;;;;;;;;;;;;;;;18.96;60.82;100777.00;4987413;28;1930;-59
2021/03/08 12:29:28;;;;;;;;;;;;;;;18.98;60.65;100775.91;4982965;28;1575;-61
2021/03/08 12:31:54;;;;;;;;;;;;;;;18.97;60.71;100768.00;4983268;28;1635;-59
2021/03/08 12:34:19;;;;;;;;;;;;;;;18.98;60.70;100775.91;4987479;28;903;-59
2021/03/08 12:36:44;;;;;;;;;;;;;;;18.95;60.76;100776.16;4972208;28;1719;-59
2021/03/08 12:39:10;;;;;;;;;;;;;;;18.96;60.81;100764.47;4987203;28;1610;-61
2021/03/08 12:41:35;;;;;;;;;;;;;;;18.98;60.71;100764.31;4986988;28;1555;-59
2021/03/08 12:44:00;;;;;;;;;;;;;;;18.97;60.89;100757.28;4985702;28;1583;-60
2021/03/08 12:46:25;;;;;;;;;;;;;;;18.94;60.60;100753.03;4984619;28;1890;-59
2021/03/08 12:48:51;;;;;;;;;;;;;;;18.93;60.72;100761.22;4988518;28;816;-59
2021/03/08 12:51:17;;;;;;;;;;;;;;;18.93;60.79;100759.38;4992477;28;1818;-60
2021/03/08 12:53:42;;;;;;;;;;;;;;;18.95;60.70;100748.53;4985822;28;1553;-59